Time;durP1;ratioP1;P1;durP2;ratioP2;P2;SDS_P1;SDS_P2;PMS_P1;PMS_P2;Temp;Humidity;BMP_temperature;BMP_pressure;BME280_temperature;BME280_humidity;BME280_pressure;Samples;Min_cycle;Max_cycle;Signal;HPM_P1;HPM_P2
2022/09/29 00:00:39;;;;;;;3.15;0.70;;;16.10;94.50;;;;;;5072849;28;20092;-76
2022/09/29 00:03:06;;;;;;;1.88;0.68;;;16.10;94.70;;;;;;5072728;28;20040;-76
2022/09/29 00:05:32;;;;;;;6.10;1.10;;;16.10;94.50;;;;;;5072949;28;20039;-76
2022/09/29 00:07:57;;;;;;;2.42;0.50;;;16.10;94.50;;;;;;5072793;28;20386;-76
2022/09/29 00:10:23;;;;;;;3.72;0.88;;;16.10;94.50;;;;;;5072805;28;20032;-76
2022/09/29 00:12:49;;;;;;;4.80;0.80;;;16.10;94.50;;;;;;5072729;28;20029;-76
2022/09/29 00:15:14;;;;;;;2.60;0.60;;;16.00;94.50;;;;;;5072897;28;20032;-76
2022/09/29 00:17:40;;;;;;;1.30;0.43;;;16.10;94.50;;;;;;5072230;28;20056;-76
2022/09/29 00:20:07;;;;;;;3.80;0.68;;;16.00;94.40;;;;;;5072434;28;20067;-76
2022/09/29 00:22:33;;;;;;;3.97;0.65;;;16.00;94.40;;;;;;5072634;28;20021;-68
2022/09/29 00:24:59;;;;;;;4.88;0.50;;;16.00;94.30;;;;;;5072632;28;20029;-76
2022/09/29 00:27:24;;;;;;;3.58;0.68;;;16.00;94.20;;;;;;5072525;28;20035;-75
2022/09/29 00:29:50;;;;;;;2.78;0.60;;;16.00;94.10;;;;;;5072715;28;20035;-76
2022/09/29 00:32:16;;;;;;;4.53;0.57;;;16.00;94.00;;;;;;5072350;28;20024;-75
2022/09/29 00:34:41;;;;;;;1.45;0.57;;;16.00;93.90;;;;;;5072470;28;20033;-76
2022/09/29 00:37:07;;;;;;;4.72;0.60;;;16.00;93.80;;;;;;5072597;28;20497;-75
2022/09/29 00:39:33;;;;;;;2.90;0.50;;;16.00;93.80;;;;;;5072683;28;20044;-76
2022/09/29 00:41:58;;;;;;;3.35;0.73;;;16.00;93.80;;;;;;5072298;28;20029;-76
2022/09/29 00:44:58;;;;;;;1.52;0.43;;;16.00;93.80;;;;;;5073958;28;20032;-76
2022/09/29 00:47:24;;;;;;;5.13;0.60;;;16.00;93.90;;;;;;5074324;28;20127;-76
2022/09/29 00:50:03;;;;;;;1.45;0.50;;;16.00;93.90;;;;;;5076390;28;20058;-76
2022/09/29 00:52:34;;;;;;;1.88;0.52;;;16.00;93.80;;;;;;5076200;28;20094;-76
2022/09/29 00:55:17;;;;;;;3.97;0.73;;;15.90;93.80;;;;;;5075825;28;20048;-76
2022/09/29 00:57:51;;;;;;;1.55;0.50;;;15.90;93.80;;;;;;5075048;28;20047;-75
2022/09/29 01:00:17;;;;;;;5.10;0.70;;;15.90;93.70;;;;;;5073301;28;20058;-77
2022/09/29 01:03:00;;;;;;;4.82;0.60;;;15.90;93.80;;;;;;5073281;28;20056;-76
2022/09/29 01:05:35;;;;;;;7.05;0.50;;;15.90;93.80;;;;;;5074822;28;20470;-77
2022/09/29 01:08:15;;;;;;;6.25;0.73;;;15.90;93.90;;;;;;5075394;28;20539;-76
2022/09/29 01:10:42;;;;;;;6.72;1.33;;;16.00;94.00;;;;;;5075825;28;20021;-76
2022/09/29 01:13:08;;;;;;;3.55;0.50;;;15.90;94.00;;;;;;5075459;28;20470;-74
2022/09/29 01:15:34;;;;;;;4.45;1.05;;;15.90;94.00;;;;;;5075602;28;20070;-75
2022/09/29 01:18:00;;;;;;;4.18;0.80;;;15.90;94.10;;;;;;5075357;28;20017;-77
2022/09/29 01:20:32;;;;;;;3.65;0.50;;;15.90;94.10;;;;;;5075329;28;20032;-76
2022/09/29 01:23:28;;;;;;;1.55;0.50;;;15.90;94.20;;;;;;5075383;28;20025;-73
2022/09/29 01:26:05;;;;;;;3.30;0.73;;;15.90;94.20;;;;;;5075426;28;20044;-75
2022/09/29 01:28:51;;;;;;;5.78;0.88;;;15.90;94.20;;;;;;5075117;28;20021;-76
2022/09/29 01:31:33;;;;;;;6.20;1.00;;;15.90;94.30;;;;;;5075063;28;20035;-74
2022/09/29 01:34:11;;;;;;;3.97;1.00;;;15.90;94.30;;;;;;5074936;28;20052;-76
2022/09/29 01:36:45;;;;;;;4.68;0.85;;;15.90;94.30;;;;;;5074869;28;20035;-76
2022/09/29 01:39:11;;;;;;;2.88;1.10;;;15.90;94.30;;;;;;5075075;28;20020;-76
2022/09/29 01:41:45;;;;;;;4.70;0.98;;;15.90;94.40;;;;;;5074927;28;20036;-76
2022/09/29 01:44:14;;;;;;;3.00;0.80;;;15.90;94.40;;;;;;5075138;28;20021;-71
2022/09/29 01:47:03;;;;;;;7.10;1.00;;;15.80;94.40;;;;;;5074882;28;20036;-75
2022/09/29 01:49:34;;;;;;;3.53;0.75;;;15.80;94.40;;;;;;5074827;28;20021;-76
2022/09/29 01:52:10;;;;;;;5.85;0.90;;;15.80;94.40;;;;;;5074645;28;20031;-76
2022/09/29 01:54:46;;;;;;;3.35;0.80;;;15.90;94.50;;;;;;5074297;28;20119;-75
2022/09/29 01:57:24;;;;;;;6.53;1.00;;;15.90;94.50;;;;;;5074948;28;20020;-74
2022/09/29 02:00:09;;;;;;;3.22;0.88;;;15.90;94.60;;;;;;5074807;28;20044;-77
2022/09/29 02:03:00;;;;;;;3.47;1.02;;;15.90;94.60;;;;;;5074679;28;20036;-75
2022/09/29 02:05:35;;;;;;;4.60;0.70;;;15.90;94.70;;;;;;5074498;28;20052;-76
2022/09/29 02:08:12;;;;;;;9.27;1.00;;;15.90;94.70;;;;;;5074870;28;20024;-76
2022/09/29 02:10:47;;;;;;;4.15;1.00;;;15.90;94.70;;;;;;5074869;28;20082;-76
2022/09/29 02:13:15;;;;;;;6.75;1.35;;;15.90;94.80;;;;;;5074444;28;20036;-76
2022/09/29 02:15:47;;;;;;;7.55;1.10;;;15.90;94.90;;;;;;5074852;28;20048;-76
2022/09/29 02:18:27;;;;;;;4.27;1.00;;;15.90;94.90;;;;;;5074389;28;20031;-74
2022/09/29 02:20:53;;;;;;;2.20;0.90;;;15.90;95.00;;;;;;5074425;28;20378;-75
2022/09/29 02:23:19;;;;;;;6.45;1.00;;;15.90;95.00;;;;;;5074150;28;20017;-75
2022/09/29 02:25:47;;;;;;;5.05;1.23;;;15.90;95.00;;;;;;5074248;28;20055;-75
2022/09/29 02:28:14;;;;;;;4.50;1.58;;;15.90;95.10;;;;;;5074517;28;20474;-76
2022/09/29 02:30:40;;;;;;;9.95;1.20;;;15.90;95.10;;;;;;5074286;28;20159;-76
2022/09/29 02:33:05;;;;;;;2.85;0.90;;;15.90;95.10;;;;;;5073960;28;20058;-75
2022/09/29 02:35:44;;;;;;;2.00;0.80;;;15.90;95.10;;;;;;5074627;28;20082;-76
2022/09/29 02:38:24;;;;;;;3.53;0.90;;;15.90;95.10;;;;;;5074170;28;20426;-74
2022/09/29 02:40:58;;;;;;;4.00;0.88;;;15.90;95.10;;;;;;5074118;28;20157;-76
2022/09/29 02:43:36;;;;;;;6.15;0.98;;;15.90;95.00;;;;;;5073786;28;20185;-75
2022/09/29 02:46:23;;;;;;;5.88;0.80;;;15.90;95.00;;;;;;5073903;28;20063;-76
2022/09/29 02:48:55;;;;;;;3.83;0.80;;;15.90;95.00;;;;;;5073997;28;20356;-76
2022/09/29 02:51:37;;;;;;;4.85;0.90;;;15.90;95.00;;;;;;5073795;28;20032;-76
2022/09/29 02:54:44;;;;;;;4.70;0.77;;;15.90;95.10;;;;;;5073723;28;20385;-76
2022/09/29 02:57:23;;;;;;;5.05;0.85;;;15.90;95.00;;;;;;5073083;28;20048;-75
2022/09/29 03:00:09;;;;;;;3.65;0.93;;;15.90;95.00;;;;;;5073203;28;20438;-75
2022/09/29 03:02:37;;;;;;;2.67;0.60;;;15.90;95.00;;;;;;5073875;28;20036;-75
2022/09/29 03:05:05;;;;;;;1.73;0.70;;;16.00;95.10;;;;;;5073776;28;20025;-77
2022/09/29 03:07:31;;;;;;;2.58;0.70;;;16.00;95.10;;;;;;5072801;28;20107;-75
2022/09/29 03:09:56;;;;;;;3.60;0.60;;;15.90;95.10;;;;;;5073419;28;20107;-76
2022/09/29 03:12:22;;;;;;;2.47;0.60;;;15.90;95.10;;;;;;5073098;28;20474;-77
2022/09/29 03:14:48;;;;;;;2.78;0.68;;;15.90;95.10;;;;;;5073259;28;20445;-76
2022/09/29 03:17:14;;;;;;;2.08;0.50;;;16.00;95.20;;;;;;5073369;28;20027;-76
2022/09/29 03:19:40;;;;;;;4.50;0.70;;;16.00;95.20;;;;;;5073070;28;20058;-78
2022/09/29 03:22:06;;;;;;;2.50;0.68;;;15.90;95.20;;;;;;5073163;28;20412;-76
2022/09/29 03:24:31;;;;;;;5.22;0.90;;;15.90;95.20;;;;;;5073475;28;20056;-68
2022/09/29 03:26:57;;;;;;;4.38;0.80;;;15.90;95.20;;;;;;5073259;28;20493;-77
2022/09/29 03:29:22;;;;;;;6.93;0.90;;;15.90;95.20;;;;;;5073076;28;20383;-76
2022/09/29 03:31:48;;;;;;;2.95;0.60;;;15.90;95.20;;;;;;5072899;28;20035;-76
2022/09/29 03:34:14;;;;;;;6.70;1.67;;;15.90;95.20;;;;;;5072980;28;20016;-76
2022/09/29 03:36:40;;;;;;;3.40;0.82;;;15.90;95.20;;;;;;5073100;28;20040;-76
2022/09/29 03:39:07;;;;;;;5.55;0.80;;;15.90;95.20;;;;;;5073301;28;20364;-76
2022/09/29 03:41:32;;;;;;;4.63;1.13;;;15.90;95.20;;;;;;5073008;28;20020;-76
2022/09/29 03:43:58;;;;;;;7.90;0.90;;;15.90;95.20;;;;;;5073104;28;20098;-76
2022/09/29 03:46:24;;;;;;;7.30;1.17;;;15.90;95.30;;;;;;5072752;28;20107;-76
2022/09/29 03:48:50;;;;;;;5.53;0.80;;;15.90;95.30;;;;;;5072946;28;20082;-76
2022/09/29 03:51:15;;;;;;;5.15;1.02;;;15.90;95.30;;;;;;5072921;28;20033;-77
2022/09/29 03:53:41;;;;;;;10.25;1.10;;;15.90;95.30;;;;;;5072748;28;20539;-76
2022/09/29 03:56:07;;;;;;;4.43;1.00;;;15.80;95.30;;;;;;5072632;28;20131;-77
2022/09/29 03:58:33;;;;;;;5.05;1.10;;;15.90;95.30;;;;;;5072849;28;20012;-76
2022/09/29 04:01:00;;;;;;;6.82;1.25;;;15.90;95.30;;;;;;5072874;28;20375;-77
2022/09/29 04:03:25;;;;;;;8.45;1.13;;;15.90;95.30;;;;;;5072641;28;20036;-77
2022/09/29 04:05:51;;;;;;;5.07;1.00;;;15.90;95.40;;;;;;5072711;28;20033;-73
2022/09/29 04:08:17;;;;;;;5.20;1.02;;;15.90;95.40;;;;;;5072896;28;20513;-74
2022/09/29 04:10:46;;;;;;;6.65;1.15;;;15.80;95.30;;;;;;5072851;28;20036;-75
2022/09/29 04:13:12;;;;;;;3.47;1.27;;;15.90;95.30;;;;;;5072596;28;20024;-75
2022/09/29 04:15:37;;;;;;;2.53;0.82;;;15.80;95.60;;;;;;5072852;28;20070;-74
2022/09/29 04:18:03;;;;;;;3.78;1.05;;;15.80;95.30;;;;;;5073850;28;20471;-75
2022/09/29 04:20:29;;;;;;;3.33;0.93;;;15.80;95.30;;;;;;5076698;28;20471;-75
2022/09/29 04:22:55;;;;;;;4.75;1.10;;;15.80;95.30;;;;;;5076819;28;20025;-76
2022/09/29 04:25:20;;;;;;;5.78;1.30;;;15.80;95.30;;;;;;5076507;28;20029;-79
2022/09/29 04:27:46;;;;;;;5.07;1.40;;;15.70;95.20;;;;;;5076448;28;20052;-76
2022/09/29 04:30:12;;;;;;;5.10;1.30;;;15.70;95.20;;;;;;5076642;28;20496;-74
2022/09/29 04:32:38;;;;;;;5.30;1.50;;;15.70;95.30;;;;;;5076877;28;20036;-76
2022/09/29 04:35:04;;;;;;;9.85;1.95;;;15.70;95.30;;;;;;5076493;28;20031;-76
2022/09/29 04:37:30;;;;;;;7.47;1.55;;;15.70;95.30;;;;;;5076559;28;20028;-76
2022/09/29 04:39:56;;;;;;;4.05;1.48;;;15.70;95.30;;;;;;5076634;28;20028;-76
2022/09/29 04:42:22;;;;;;;5.28;1.52;;;15.70;95.40;;;;;;5076372;28;20029;-76
2022/09/29 04:44:48;;;;;;;6.90;1.60;;;15.70;95.40;;;;;;5076583;28;20032;-76
2022/09/29 04:47:14;;;;;;;7.85;1.55;;;15.70;95.40;;;;;;5076035;28;20511;-76
2022/09/29 04:49:39;;;;;;;6.53;1.50;;;15.70;95.40;;;;;;5076122;28;20039;-76
2022/09/29 04:52:05;;;;;;;6.10;1.40;;;15.70;95.40;;;;;;5076463;28;20043;-74
2022/09/29 04:54:32;;;;;;;4.90;1.52;;;15.70;95.50;;;;;;5075884;28;20119;-76
2022/09/29 04:56:58;;;;;;;10.45;1.50;;;15.70;95.50;;;;;;5076020;28;20085;-75
2022/09/29 04:59:24;;;;;;;11.50;2.05;;;15.70;95.50;;;;;;5075895;28;20032;-76
2022/09/29 05:01:49;;;;;;;7.65;1.50;;;15.70;95.50;;;;;;5076144;28;20032;-76
2022/09/29 05:04:15;;;;;;;9.75;1.75;;;15.70;95.50;;;;;;5075861;28;20024;-76
2022/09/29 05:06:41;;;;;;;4.25;1.60;;;15.70;95.60;;;;;;5075843;28;20086;-76
2022/09/29 05:09:07;;;;;;;5.45;1.40;;;15.70;95.60;;;;;;5075913;28;20462;-76
2022/09/29 05:11:33;;;;;;;7.28;1.80;;;15.70;95.60;;;;;;5075685;28;20038;-75
2022/09/29 05:13:59;;;;;;;5.75;1.70;;;15.70;95.60;;;;;;5075673;28;20033;-75
2022/09/29 05:16:25;;;;;;;10.40;2.55;;;15.70;95.70;;;;;;5075771;28;20029;-75
2022/09/29 05:18:51;;;;;;;7.45;2.22;;;15.70;95.70;;;;;;5075940;28;20059;-73
2022/09/29 05:21:17;;;;;;;6.82;1.65;;;15.70;95.70;;;;;;5075775;28;20056;-76
2022/09/29 05:23:43;;;;;;;3.70;1.38;;;15.70;95.70;;;;;;5075573;28;20437;-77
2022/09/29 05:26:10;;;;;;;10.80;1.60;;;15.70;95.70;;;;;;5075452;28;20119;-75
2022/09/29 05:28:38;;;;;;;8.27;1.80;;;15.70;95.70;;;;;;5075439;28;20025;-76
2022/09/29 05:31:07;;;;;;;5.95;1.75;;;15.70;95.80;;;;;;5074685;28;20086;-75
2022/09/29 05:33:34;;;;;;;5.68;1.92;;;15.80;95.80;;;;;;5075392;28;20035;-76
2022/09/29 05:36:02;;;;;;;6.50;1.92;;;15.70;95.80;;;;;;5075239;28;20028;-76
2022/09/29 05:38:28;;;;;;;5.30;1.95;;;15.80;95.90;;;;;;5075106;28;20029;-75
2022/09/29 05:40:54;;;;;;;6.85;1.98;;;15.80;95.90;;;;;;5075174;28;20093;-76
2022/09/29 05:43:20;;;;;;;5.13;2.03;;;15.80;96.20;;;;;;5075140;28;20063;-76
2022/09/29 05:45:45;;;;;;;7.30;2.15;;;15.80;95.90;;;;;;5075080;28;20457;-76
2022/09/29 05:48:11;;;;;;;12.43;10.10;;;15.80;95.80;;;;;;5074890;28;20020;-76
2022/09/29 05:50:40;;;;;;;10.05;3.10;;;15.80;95.80;;;;;;5074871;28;20077;-70
2022/09/29 05:53:10;;;;;;;9.40;2.63;;;15.90;95.80;;;;;;5074687;28;20058;-72
2022/09/29 05:55:37;;;;;;;5.78;2.08;;;15.90;95.80;;;;;;5074552;28;20490;-76
2022/09/29 05:58:03;;;;;;;9.55;1.95;;;15.90;95.70;;;;;;5074955;28;20031;-75
2022/09/29 06:00:30;;;;;;;8.05;2.15;;;15.90;95.70;;;;;;5074653;28;20108;-76
2022/09/29 06:02:58;;;;;;;5.10;2.00;;;15.90;95.70;;;;;;5074729;28;20024;-76
2022/09/29 06:05:25;;;;;;;7.85;2.17;;;15.90;95.70;;;;;;5072677;28;20478;-77
2022/09/29 06:07:51;;;;;;;9.63;2.70;;;15.90;95.70;;;;;;5074171;28;20031;-76
2022/09/29 06:10:17;;;;;;;4.90;2.08;;;15.90;95.80;;;;;;5074099;28;20035;-76
2022/09/29 06:12:43;;;;;;;3.17;2.13;;;15.90;95.80;;;;;;5074135;28;20461;-75
2022/09/29 06:15:10;;;;;;;8.13;2.67;;;15.90;95.80;;;;;;5074084;28;20025;-75
2022/09/29 06:17:36;;;;;;;7.25;2.40;;;15.90;95.80;;;;;;5073869;28;20355;-76
2022/09/29 06:20:03;;;;;;;6.38;2.55;;;16.00;95.80;;;;;;5073843;28;20499;-75
2022/09/29 06:22:29;;;;;;;7.78;2.40;;;16.00;95.70;;;;;;5073942;28;20052;-75
2022/09/29 06:24:55;;;;;;;7.38;2.63;;;16.00;95.80;;;;;;5073658;28;20055;-71
2022/09/29 06:27:20;;;;;;;7.97;3.13;;;16.00;95.80;;;;;;5073450;28;20028;-76
2022/09/29 06:29:46;;;;;;;10.35;3.40;;;16.00;95.80;;;;;;5073466;28;20082;-75
2022/09/29 06:32:12;;;;;;;6.85;2.83;;;16.00;95.90;;;;;;5073584;28;20386;-74
2022/09/29 06:37:33;;;;;;;12.32;3.33;;;16.00;95.90;;;;;;5073505;28;20113;-76
2022/09/29 06:37:36;;;;;;;6.03;3.00;;;16.10;96.20;;;;;;5073666;28;20075;-75
2022/09/29 06:40:03;;;;;;;15.18;4.32;;;16.10;95.90;;;;;;5073513;28;20040;-74
2022/09/29 06:42:29;;;;;;;8.10;3.45;;;16.10;95.80;;;;;;5047333;28;20045;-75
2022/09/29 06:44:55;;;;;;;9.48;3.17;;;16.20;95.80;;;;;;5073648;28;20074;-75
2022/09/29 06:47:21;;;;;;;8.38;3.20;;;16.20;95.70;;;;;;5072995;28;20441;-75
2022/09/29 06:49:47;;;;;;;6.93;2.88;;;16.20;95.60;;;;;;5073515;28;20417;-74
2022/09/29 06:52:13;;;;;;;10.02;3.10;;;16.20;95.60;;;;;;5073489;28;20142;-75
2022/09/29 06:54:39;;;;;;;11.20;3.10;;;16.20;95.50;;;;;;5073360;28;20082;-75
2022/09/29 06:57:04;;;;;;;7.15;3.00;;;16.30;95.50;;;;;;5073429;28;20031;-72
2022/09/29 06:59:30;;;;;;;7.47;2.78;;;16.30;95.40;;;;;;5073270;28;20074;-72
2022/09/29 07:01:56;;;;;;;6.55;2.50;;;16.30;95.20;;;;;;5072749;28;20485;-63
2022/09/29 07:04:22;;;;;;;7.65;2.08;;;16.40;95.10;;;;;;5072404;28;20060;-69
2022/09/29 07:06:48;;;;;;;10.82;2.30;;;16.40;94.90;;;;;;5072910;28;20083;-64
2022/09/29 07:09:15;;;;;;;11.00;2.13;;;16.40;94.90;;;;;;5073443;28;20424;-64
2022/09/29 07:11:45;;;;;;;7.90;2.22;;;16.40;95.10;;;;;;5073539;28;20037;-64
2022/09/29 07:14:16;;;;;;;7.05;2.75;;;16.40;94.90;;;;;;5073073;28;20020;-65
2022/09/29 07:16:42;;;;;;;8.52;2.45;;;16.50;94.80;;;;;;5073314;28;20107;-66
2022/09/29 07:19:08;;;;;;;7.50;2.53;;;16.50;94.80;;;;;;5073551;28;20016;-65
2022/09/29 07:21:34;;;;;;;10.45;2.55;;;16.50;94.80;;;;;;5073312;28;20398;-65
2022/09/29 07:24:00;;;;;;;10.57;2.33;;;16.50;94.80;;;;;;5073339;28;20024;-66
2022/09/29 07:26:26;;;;;;;9.05;2.03;;;16.50;94.80;;;;;;5073270;28;20055;-65
2022/09/29 07:28:52;;;;;;;7.45;2.03;;;16.60;94.80;;;;;;5072907;28;20378;-66
2022/09/29 07:31:20;;;;;;;9.32;2.08;;;16.60;94.80;;;;;;5072444;28;20113;-66
2022/09/29 07:33:47;;;;;;;8.52;2.03;;;16.70;94.70;;;;;;5071623;28;20475;-69
2022/09/29 07:36:15;;;;;;;6.82;2.40;;;16.70;94.70;;;;;;5072831;28;20383;-68
2022/09/29 07:38:44;;;;;;;8.15;2.05;;;16.80;94.80;;;;;;5072857;28;20387;-69
2022/09/29 07:41:10;;;;;;;6.80;2.10;;;16.80;94.80;;;;;;5072728;28;20509;-68
2022/09/29 07:43:36;;;;;;;7.47;2.00;;;16.80;94.80;;;;;;5072689;28;20020;-70
2022/09/29 07:46:03;;;;;;;9.38;2.75;;;16.90;94.90;;;;;;5072805;28;20039;-69
2022/09/29 07:48:30;;;;;;;10.50;1.95;;;16.90;94.90;;;;;;5072215;28;20024;-69
2022/09/29 07:51:02;;;;;;;10.57;1.98;;;17.00;95.00;;;;;;5072434;28;20104;-69
2022/09/29 07:53:29;;;;;;;10.93;2.08;;;17.00;95.00;;;;;;5072044;28;20079;-69
2022/09/29 07:55:55;;;;;;;8.48;1.73;;;17.10;94.90;;;;;;5072542;28;20053;-69
2022/09/29 07:58:21;;;;;;;7.10;2.00;;;17.10;94.80;;;;;;5072651;28;20106;-68
2022/09/29 08:00:53;;;;;;;9.05;1.90;;;17.10;94.70;;;;;;5073108;28;20099;-68
2022/09/29 08:03:19;;;;;;;7.80;2.55;;;17.20;94.70;;;;;;5072899;28;20020;-68
2022/09/29 08:05:45;;;;;;;10.80;2.85;;;17.20;94.60;;;;;;5072743;28;20025;-68
2022/09/29 08:08:10;;;;;;;10.20;2.35;;;17.20;94.70;;;;;;5072753;28;20107;-68
2022/09/29 08:10:36;;;;;;;8.13;2.10;;;17.30;94.80;;;;;;5072619;28;20028;-68
2022/09/29 08:13:02;;;;;;;9.20;2.13;;;17.40;94.80;;;;;;5072673;28;20025;-68
2022/09/29 08:15:28;;;;;;;8.50;2.80;;;17.40;94.80;;;;;;5072874;28;20020;-69
2022/09/29 08:17:54;;;;;;;7.25;2.42;;;17.50;94.90;;;;;;5072620;28;20025;-68
2022/09/29 08:20:21;;;;;;;11.95;2.80;;;17.60;94.90;;;;;;5072219;28;20017;-68
2022/09/29 08:22:48;;;;;;;9.57;2.08;;;17.60;94.80;;;;;;5072451;28;20501;-69
2022/09/29 08:25:15;;;;;;;10.00;2.65;;;17.70;94.70;;;;;;5072170;28;20020;-69
2022/09/29 08:27:41;;;;;;;8.20;2.38;;;17.80;94.70;;;;;;5072554;28;20036;-69
2022/09/29 08:30:09;;;;;;;7.15;2.08;;;17.90;94.60;;;;;;5072344;28;20021;-69
2022/09/29 08:32:35;;;;;;;6.28;2.03;;;17.90;94.70;;;;;;5072572;28;20033;-69
2022/09/29 08:35:01;;;;;;;11.38;2.60;;;17.90;94.60;;;;;;5072310;28;20416;-69
2022/09/29 08:37:27;;;;;;;10.27;2.17;;;18.00;94.50;;;;;;5072424;28;20017;-69
2022/09/29 08:39:53;;;;;;;8.07;2.45;;;18.00;94.50;;;;;;5072671;28;20085;-68
2022/09/29 08:42:34;;;;;;;7.47;2.28;;;18.00;94.50;;;;;;5072540;28;20073;-69
2022/09/29 08:45:10;;;;;;;7.32;1.75;;;18.10;94.70;;;;;;5072223;28;20039;-68
2022/09/29 08:47:47;;;;;;;11.02;2.58;;;18.20;94.70;;;;;;5072346;28;20040;-69
2022/09/29 08:50:24;;;;;;;19.92;2.58;;;18.20;94.60;;;;;;5072131;28;20078;-69
2022/09/29 08:53:11;;;;;;;8.27;2.10;;;18.40;94.80;;;;;;5072295;28;20028;-68
2022/09/29 08:55:54;;;;;;;10.10;2.13;;;18.40;94.70;;;;;;5072074;28;20044;-69
2022/09/29 08:58:20;;;;;;;13.57;2.10;;;18.50;94.60;;;;;;5072246;28;20419;-68
2022/09/29 09:01:00;;;;;;;8.70;1.98;;;18.50;94.40;;;;;;5072319;28;20025;-69
2022/09/29 09:03:57;;;;;;;7.35;2.30;;;18.50;94.30;;;;;;5072320;28;20025;-69
2022/09/29 09:06:46;;;;;;;9.60;1.55;;;18.50;94.30;;;;;;5075075;28;20084;-68
2022/09/29 09:09:40;;;;;;;9.85;1.92;;;18.60;94.30;;;;;;5075962;28;20016;-69
2022/09/29 09:12:33;;;;;;;10.25;1.83;;;18.60;94.30;;;;;;5075971;28;20087;-68
2022/09/29 09:15:25;;;;;;;8.63;1.80;;;18.60;94.50;;;;;;5075450;28;20029;-68
2022/09/29 09:18:21;;;;;;;10.95;2.22;;;18.60;94.50;;;;;;5069978;28;20044;-68
2022/09/29 09:21:23;;;;;;;10.65;2.42;;;18.60;94.40;;;;;;5074450;28;20066;-70
2022/09/29 09:23:57;;;;;;;10.15;2.50;;;18.80;94.60;;;;;;5068405;28;20036;-69
2022/09/29 09:26:50;;;;;;;9.43;2.00;;;18.80;94.40;;;;;;5074969;28;20064;-69
2022/09/29 09:29:28;;;;;;;8.50;2.63;;;18.90;94.30;;;;;;5074915;28;20071;-71
2022/09/29 09:32:04;;;;;;;5.97;1.98;;;18.90;94.00;;;;;;5054863;28;20472;-69
2022/09/29 09:34:35;;;;;;;10.02;2.33;;;18.90;94.00;;;;;;5072485;28;20025;-69
2022/09/29 09:37:16;;;;;;;9.15;1.65;;;18.90;93.90;;;;;;5074163;28;20470;-70
2022/09/29 09:40:07;;;;;;;8.90;1.50;;;18.90;93.60;;;;;;5075054;28;20032;-69
2022/09/29 09:42:37;;;;;;;6.18;1.45;;;18.90;92.40;;;;;;5074756;28;20556;-72
2022/09/29 09:45:07;;;;;;;6.35;1.70;;;18.90;91.90;;;;;;5074889;28;20080;-71
2022/09/29 09:47:58;;;;;;;11.27;1.50;;;19.00;92.40;;;;;;5074517;28;20033;-70
2022/09/29 09:50:25;;;;;;;9.77;1.90;;;19.00;91.70;;;;;;5074493;28;20158;-71
2022/09/29 09:52:58;;;;;;;8.30;3.63;;;19.10;92.00;;;;;;5074472;28;20028;-73
2022/09/29 09:55:26;;;;;;;5.28;1.58;;;19.20;91.70;;;;;;5073968;28;20055;-70
2022/09/29 09:58:19;;;;;;;11.23;2.10;;;19.20;91.90;;;;;;5074225;28;20474;-71
2022/09/29 10:01:00;;;;;;;4.60;1.55;;;19.30;92.30;;;;;;5074310;28;20032;-70
2022/09/29 10:03:27;;;;;;;14.30;2.03;;;19.40;92.30;;;;;;5074309;28;20031;-70
2022/09/29 10:05:54;;;;;;;9.73;2.38;;;19.50;92.20;;;;;;5073611;28;20032;-70
2022/09/29 10:08:28;;;;;;;8.68;1.80;;;19.50;92.10;;;;;;5073748;28;20036;-69
2022/09/29 10:10:56;;;;;;;8.30;1.98;;;19.60;91.20;;;;;;5073896;28;20406;-69
2022/09/29 10:13:26;;;;;;;9.18;2.25;;;19.60;90.90;;;;;;5073640;28;20028;-70
2022/09/29 10:16:12;;;;;;;10.82;1.80;;;19.70;91.10;;;;;;5073040;28;20032;-70
2022/09/29 10:18:47;;;;;;;6.60;1.60;;;19.70;90.90;;;;;;5073818;28;20042;-70
2022/09/29 10:21:36;;;;;;;11.45;2.15;;;19.70;91.00;;;;;;5074280;28;20035;-69
2022/09/29 10:24:03;;;;;;;9.70;2.20;;;19.70;91.20;;;;;;5073454;28;20032;-69
2022/09/29 10:26:38;;;;;;;9.88;2.00;;;19.90;91.50;;;;;;5073891;28;20064;-69
2022/09/29 10:29:36;;;;;;;13.07;2.60;;;20.00;91.50;;;;;;5073711;28;20029;-70
2022/09/29 10:32:09;;;;;;;6.57;1.52;;;20.10;90.40;;;;;;5073947;28;20060;-69
2022/09/29 10:34:41;;;;;;;;;;;20.20;89.60;;;;;;5073986;28;20048;-73
2022/09/29 10:37:27;;;;;;;12.60;2.05;;;20.10;89.70;;;;;;5073223;28;20324;-70
2022/09/29 10:40:12;;;;;;;10.32;2.15;;;20.20;90.00;;;;;;5065772;28;20131;-70
2022/09/29 10:42:40;;;;;;;9.57;2.20;;;20.20;90.30;;;;;;5073445;28;20028;-69
2022/09/29 10:45:21;;;;;;;8.35;2.05;;;20.30;90.30;;;;;;5073294;28;20020;-70
2022/09/29 10:48:03;;;;;;;7.57;1.83;;;20.50;90.00;;;;;;5073342;28;20379;-70
2022/09/29 10:50:31;;;;;;;6.10;1.35;;;20.60;87.50;;;;;;5073420;28;20466;-70
2022/09/29 10:53:00;;;;;;;10.13;2.10;;;20.60;85.30;;;;;;5073595;28;20036;-70
2022/09/29 10:55:35;;;;;;;7.38;1.73;;;20.50;86.10;;;;;;5073535;28;20072;-69
2022/09/29 10:58:27;;;;;;;8.02;1.88;;;20.40;86.50;;;;;;5073494;28;20032;-70
2022/09/29 11:01:13;;;;;;;9.80;2.00;;;20.40;85.90;;;;;;5073552;28;20017;-70
2022/09/29 11:04:02;;;;;;;7.68;2.08;;;20.30;86.60;;;;;;5073639;28;20349;-70
2022/09/29 11:06:33;;;;;;;10.23;2.40;;;20.20;86.40;;;;;;5073662;28;20435;-69
2022/09/29 11:09:03;;;;;;;8.27;1.77;;;20.10;86.80;;;;;;5072953;28;20111;-70
2022/09/29 11:11:39;;;;;;;12.52;1.90;;;20.00;86.70;;;;;;5073316;28;20021;-69
2022/09/29 11:14:22;;;;;;;9.35;1.77;;;20.00;87.00;;;;;;5073389;28;20029;-70
2022/09/29 11:17:00;;;;;;;10.93;2.72;;;19.90;87.40;;;;;;5073390;28;20024;-70
2022/09/29 11:19:28;;;;;;;6.70;1.63;;;19.90;87.40;;;;;;5072772;28;20028;-69
2022/09/29 11:22:27;;;;;;;8.25;1.88;;;19.80;87.10;;;;;;5073040;28;20378;-70
2022/09/29 11:25:08;;;;;;;9.73;2.00;;;19.80;86.40;;;;;;5073151;28;20033;-70
2022/09/29 11:28:02;;;;;;;12.52;2.88;;;19.80;87.10;;;;;;5071158;28;20445;-69
2022/09/29 11:30:41;;;;;;;16.27;2.20;;;19.70;87.80;;;;;;5071503;28;20082;-71
2022/09/29 11:33:33;;;;;;;8.05;1.77;;;19.80;84.30;;;;;;5070430;28;20032;-73
2022/09/29 11:36:24;;;;;;;9.07;1.58;;;19.70;83.10;;;;;;5053265;28;20029;-73
2022/09/29 11:39:13;;;;;;;15.70;3.17;;;19.70;81.80;;;;;;5072453;28;20032;-73
2022/09/29 11:42:13;;;;;;;6.38;1.85;;;19.70;82.50;;;;;;5072518;28;20032;-69
2022/09/29 11:44:57;;;;;;;8.23;1.92;;;19.80;83.10;;;;;;5073247;28;20073;-71
2022/09/29 11:47:54;;;;;;;14.48;2.13;;;19.80;83.20;;;;;;5072465;28;20040;-73
2022/09/29 11:50:53;;;;;;;9.43;1.83;;;19.90;82.20;;;;;;5072780;28;20033;-74
2022/09/29 11:54:33;;;;;;;15.60;3.28;;;19.90;83.20;;;;;;5072142;28;20017;-72
2022/09/29 11:57:17;;;;;;;10.82;2.22;;;20.00;82.60;;;;;;4972601;28;20038;-69
2022/09/29 12:00:09;;;;;;;7.60;1.65;;;20.00;82.60;;;;;;4990945;28;20066;-70
2022/09/29 12:02:50;;;;;;;11.95;2.25;;;20.00;82.40;;;;;;5054054;28;20036;-70
2022/09/29 12:05:34;;;;;;;8.30;2.00;;;20.00;82.80;;;;;;5072738;28;20390;-72
2022/09/29 12:08:31;;;;;;;11.93;2.40;;;20.00;83.30;;;;;;5072022;28;20502;-69
2022/09/29 12:10:59;;;;;;;11.32;1.92;;;19.90;83.90;;;;;;5072389;28;20082;-69
2022/09/29 12:13:53;;;;;;;15.20;2.20;;;20.00;84.40;;;;;;5072378;28;20051;-69
2022/09/29 12:16:21;;;;;;;11.52;2.25;;;20.00;84.20;;;;;;5071723;28;20086;-69
2022/09/29 12:18:57;;;;;;;8.55;2.10;;;19.90;84.90;;;;;;5072467;28;20025;-69
2022/09/29 12:21:49;;;;;;;10.85;2.20;;;20.00;84.80;;;;;;5072332;28;20028;-69
2022/09/29 12:24:41;;;;;;;11.20;2.00;;;20.00;84.60;;;;;;5069477;28;20016;-69
2022/09/29 12:27:12;;;;;;;;;;;20.00;84.00;;;;;;5070642;28;20125;-69
2022/09/29 12:29:51;;;;;;;17.00;2.15;;;20.10;83.70;;;;;;5072252;28;20277;-69
2022/09/29 12:32:35;;;;;;;11.02;2.03;;;20.10;84.40;;;;;;5072297;28;20104;-69
2022/09/29 12:35:19;;;;;;;12.52;2.08;;;20.10;84.20;;;;;;5072568;28;20016;-69
2022/09/29 12:37:53;;;;;;;10.77;2.13;;;20.20;84.30;;;;;;5072290;28;20024;-69
2022/09/29 12:40:31;;;;;;;11.07;1.90;;;20.10;83.10;;;;;;5075451;28;20032;-68
2022/09/29 12:43:12;;;;;;;13.18;2.13;;;20.10;82.90;;;;;;5075801;28;20475;-68
2022/09/29 12:45:50;;;;;;;11.73;1.85;;;20.20;82.70;;;;;;5075479;28;20505;-66
2022/09/29 12:48:39;;;;;;;6.82;1.67;;;20.10;82.80;;;;;;5075712;28;20440;-67
2022/09/29 12:51:11;;;;;;;13.05;2.08;;;20.20;83.00;;;;;;5075445;28;20025;-65
2022/09/29 12:54:00;;;;;;;13.68;2.20;;;20.10;83.10;;;;;;5075740;28;20029;-64
2022/09/29 12:56:33;;;;;;;15.20;1.95;;;20.20;83.10;;;;;;5075450;28;20040;-65
2022/09/29 12:59:08;;;;;;;9.45;2.10;;;20.20;82.20;;;;;;5075933;28;20508;-65
2022/09/29 13:01:36;;;;;;;5.10;1.30;;;20.30;82.70;;;;;;5075685;28;20017;-65
2022/09/29 13:04:08;;;;;;;3.60;1.02;;;20.40;81.50;;;;;;5075537;28;20032;-65
2022/09/29 13:07:08;;;;;;;7.72;1.33;;;20.40;79.70;;;;;;5074739;28;20574;-65
2022/09/29 13:09:58;;;;;;;3.13;0.90;;;20.40;79.30;;;;;;5072930;28;20107;-66
2022/09/29 13:12:27;;;;;;;6.90;1.40;;;20.40;79.60;;;;;;5072827;28;20115;-65
2022/09/29 13:15:23;;;;;;;4.78;1.00;;;20.40;80.00;;;;;;5074815;28;20024;-64